Terminal Aerodrome Forecast
Issued by NWS Blacksburg, VA

Home | Current Version | Previous Version | Text Only | Print | Product List | Glossary On
Versions: 1 2 3 4 5 6 7 8 9 10 11 12 13 14 15 16 17 18 19 20 21 22 23 24 25 26 27 28 29 30 31 32
000
FTUS41 KRNK 191959 AAA
TAFROA
TAF AMD
KROA 191959Z 1920/2018 00000KT 4SM BR FEW007 OVC035
     FM192100 VRB03KT P6SM SCT022 OVC035
     FM200800 00000KT 5SM BR BKN030
     FM201000 07002KT 2SM BR SCT015
     FM201400 00000KT P6SM SCT250=

USA.gov is the U.S. government's official web portal to all federal, state and local government web resources and services.